sensor_id;sensor_type;location;lat;lon;timestamp;P1;durP1;ratioP1;P2;durP2;ratioP2
22068;SDS011;13887;57.196;-2.100;2024-01-16T00:00:44;13.50;;;13.00;;
22068;SDS011;13887;57.196;-2.100;2024-01-16T00:03:12;13.70;;;13.20;;
22068;SDS011;13887;57.196;-2.100;2024-01-16T00:05:39;13.50;;;13.00;;
22068;SDS011;13887;57.196;-2.100;2024-01-16T00:08:06;13.57;;;13.07;;
22068;SDS011;13887;57.196;-2.100;2024-01-16T00:10:34;13.77;;;13.27;;
22068;SDS011;13887;57.196;-2.100;2024-01-16T00:13:01;13.90;;;13.40;;
22068;SDS011;13887;57.196;-2.100;2024-01-16T00:15:28;13.80;;;13.30;;
22068;SDS011;13887;57.196;-2.100;2024-01-16T00:17:55;13.60;;;13.10;;
22068;SDS011;13887;57.196;-2.100;2024-01-16T00:20:23;13.80;;;13.30;;
22068;SDS011;13887;57.196;-2.100;2024-01-16T00:22:52;13.90;;;13.40;;
22068;SDS011;13887;57.196;-2.100;2024-01-16T00:25:19;13.90;;;13.40;;
22068;SDS011;13887;57.196;-2.100;2024-01-16T00:27:47;14.00;;;13.50;;
22068;SDS011;13887;57.196;-2.100;2024-01-16T00:30:14;14.20;;;13.70;;
22068;SDS011;13887;57.196;-2.100;2024-01-16T00:32:41;13.97;;;13.47;;
22068;SDS011;13887;57.196;-2.100;2024-01-16T00:35:09;14.20;;;13.70;;
22068;SDS011;13887;57.196;-2.100;2024-01-16T00:37:36;14.17;;;13.67;;
22068;SDS011;13887;57.196;-2.100;2024-01-16T00:40:04;13.90;;;13.40;;
22068;SDS011;13887;57.196;-2.100;2024-01-16T00:42:32;13.57;;;13.07;;
22068;SDS011;13887;57.196;-2.100;2024-01-16T00:44:59;14.00;;;13.50;;
22068;SDS011;13887;57.196;-2.100;2024-01-16T00:47:27;14.10;;;13.60;;
22068;SDS011;13887;57.196;-2.100;2024-01-16T00:49:54;14.27;;;13.77;;
22068;SDS011;13887;57.196;-2.100;2024-01-16T00:52:21;13.53;;;13.03;;
22068;SDS011;13887;57.196;-2.100;2024-01-16T00:54:49;13.67;;;13.17;;
22068;SDS011;13887;57.196;-2.100;2024-01-16T00:57:16;13.20;;;12.80;;
22068;SDS011;13887;57.196;-2.100;2024-01-16T00:59:46;13.43;;;12.93;;
22068;SDS011;13887;57.196;-2.100;2024-01-16T01:02:14;13.70;;;13.20;;
22068;SDS011;13887;57.196;-2.100;2024-01-16T01:04:42;13.70;;;13.20;;
22068;SDS011;13887;57.196;-2.100;2024-01-16T01:07:12;14.00;;;13.50;;
22068;SDS011;13887;57.196;-2.100;2024-01-16T01:09:42;14.00;;;13.50;;
22068;SDS011;13887;57.196;-2.100;2024-01-16T01:12:10;13.97;;;13.47;;
22068;SDS011;13887;57.196;-2.100;2024-01-16T01:14:37;13.60;;;13.10;;
22068;SDS011;13887;57.196;-2.100;2024-01-16T01:17:04;13.70;;;13.20;;
22068;SDS011;13887;57.196;-2.100;2024-01-16T01:19:32;14.03;;;13.53;;
22068;SDS011;13887;57.196;-2.100;2024-01-16T01:21:59;14.10;;;13.60;;
22068;SDS011;13887;57.196;-2.100;2024-01-16T01:24:26;13.77;;;13.27;;
22068;SDS011;13887;57.196;-2.100;2024-01-16T01:26:53;13.63;;;13.13;;
22068;SDS011;13887;57.196;-2.100;2024-01-16T01:29:21;13.73;;;13.23;;
22068;SDS011;13887;57.196;-2.100;2024-01-16T01:31:48;13.80;;;13.30;;
22068;SDS011;13887;57.196;-2.100;2024-01-16T01:34:15;13.60;;;13.10;;
22068;SDS011;13887;57.196;-2.100;2024-01-16T01:36:43;13.80;;;13.30;;
22068;SDS011;13887;57.196;-2.100;2024-01-16T01:39:10;14.00;;;13.50;;
22068;SDS011;13887;57.196;-2.100;2024-01-16T01:41:38;13.70;;;13.20;;
22068;SDS011;13887;57.196;-2.100;2024-01-16T01:44:06;13.97;;;13.47;;
22068;SDS011;13887;57.196;-2.100;2024-01-16T01:46:33;13.93;;;13.43;;
22068;SDS011;13887;57.196;-2.100;2024-01-16T01:49:02;13.80;;;13.30;;
22068;SDS011;13887;57.196;-2.100;2024-01-16T01:51:30;13.70;;;13.20;;
22068;SDS011;13887;57.196;-2.100;2024-01-16T01:53:57;13.57;;;13.07;;
22068;SDS011;13887;57.196;-2.100;2024-01-16T01:56:26;14.17;;;13.67;;
22068;SDS011;13887;57.196;-2.100;2024-01-16T01:58:56;14.17;;;13.67;;
22068;SDS011;13887;57.196;-2.100;2024-01-16T02:01:25;14.27;;;13.77;;
22068;SDS011;13887;57.196;-2.100;2024-01-16T02:03:56;14.00;;;13.50;;
22068;SDS011;13887;57.196;-2.100;2024-01-16T02:06:25;13.80;;;13.30;;
22068;SDS011;13887;57.196;-2.100;2024-01-16T02:08:53;13.50;;;13.00;;
22068;SDS011;13887;57.196;-2.100;2024-01-16T02:11:20;14.40;;;13.90;;
22068;SDS011;13887;57.196;-2.100;2024-01-16T02:13:47;14.30;;;13.80;;
22068;SDS011;13887;57.196;-2.100;2024-01-16T02:16:21;14.10;;;13.60;;
22068;SDS011;13887;57.196;-2.100;2024-01-16T02:18:50;14.27;;;13.77;;
22068;SDS011;13887;57.196;-2.100;2024-01-16T02:21:21;14.20;;;13.70;;
22068;SDS011;13887;57.196;-2.100;2024-01-16T02:23:52;14.37;;;13.87;;
22068;SDS011;13887;57.196;-2.100;2024-01-16T02:26:20;14.50;;;14.00;;
22068;SDS011;13887;57.196;-2.100;2024-01-16T02:28:48;14.57;;;14.07;;
22068;SDS011;13887;57.196;-2.100;2024-01-16T02:31:15;14.70;;;14.20;;
22068;SDS011;13887;57.196;-2.100;2024-01-16T02:33:43;14.27;;;13.77;;
22068;SDS011;13887;57.196;-2.100;2024-01-16T02:36:11;14.20;;;13.70;;
22068;SDS011;13887;57.196;-2.100;2024-01-16T02:38:38;14.13;;;13.63;;
22068;SDS011;13887;57.196;-2.100;2024-01-16T02:41:07;14.23;;;13.73;;
22068;SDS011;13887;57.196;-2.100;2024-01-16T02:43:34;14.20;;;13.70;;
22068;SDS011;13887;57.196;-2.100;2024-01-16T02:46:01;14.10;;;13.60;;
22068;SDS011;13887;57.196;-2.100;2024-01-16T02:48:28;14.33;;;13.83;;
22068;SDS011;13887;57.196;-2.100;2024-01-16T02:50:56;14.17;;;13.67;;
22068;SDS011;13887;57.196;-2.100;2024-01-16T02:53:23;14.10;;;13.60;;
22068;SDS011;13887;57.196;-2.100;2024-01-16T02:55:52;14.47;;;13.97;;
22068;SDS011;13887;57.196;-2.100;2024-01-16T02:58:19;14.40;;;13.90;;
22068;SDS011;13887;57.196;-2.100;2024-01-16T03:00:47;14.17;;;13.67;;
22068;SDS011;13887;57.196;-2.100;2024-01-16T03:03:15;14.33;;;13.83;;
22068;SDS011;13887;57.196;-2.100;2024-01-16T03:05:42;14.50;;;14.00;;
22068;SDS011;13887;57.196;-2.100;2024-01-16T03:08:09;14.00;;;13.50;;
22068;SDS011;13887;57.196;-2.100;2024-01-16T03:10:37;14.03;;;13.53;;
22068;SDS011;13887;57.196;-2.100;2024-01-16T03:13:04;14.33;;;13.83;;
22068;SDS011;13887;57.196;-2.100;2024-01-16T03:15:31;14.03;;;13.53;;
22068;SDS011;13887;57.196;-2.100;2024-01-16T03:17:59;14.60;;;14.10;;
22068;SDS011;13887;57.196;-2.100;2024-01-16T03:20:28;14.20;;;13.70;;
22068;SDS011;13887;57.196;-2.100;2024-01-16T03:22:55;14.27;;;13.77;;
22068;SDS011;13887;57.196;-2.100;2024-01-16T03:25:22;14.30;;;13.80;;
22068;SDS011;13887;57.196;-2.100;2024-01-16T03:27:50;13.90;;;13.40;;
22068;SDS011;13887;57.196;-2.100;2024-01-16T03:30:17;14.53;;;14.03;;
22068;SDS011;13887;57.196;-2.100;2024-01-16T03:32:45;14.50;;;14.00;;
22068;SDS011;13887;57.196;-2.100;2024-01-16T03:35:12;14.10;;;13.60;;
22068;SDS011;13887;57.196;-2.100;2024-01-16T03:37:40;14.30;;;13.80;;
22068;SDS011;13887;57.196;-2.100;2024-01-16T03:40:07;14.40;;;13.90;;
22068;SDS011;13887;57.196;-2.100;2024-01-16T03:42:35;14.73;;;14.23;;
22068;SDS011;13887;57.196;-2.100;2024-01-16T03:45:02;14.53;;;14.03;;
22068;SDS011;13887;57.196;-2.100;2024-01-16T03:47:29;14.60;;;14.10;;
22068;SDS011;13887;57.196;-2.100;2024-01-16T03:49:57;14.47;;;13.97;;
22068;SDS011;13887;57.196;-2.100;2024-01-16T03:52:24;14.47;;;13.97;;
22068;SDS011;13887;57.196;-2.100;2024-01-16T03:54:51;14.13;;;13.63;;
22068;SDS011;13887;57.196;-2.100;2024-01-16T03:57:18;14.67;;;14.17;;
22068;SDS011;13887;57.196;-2.100;2024-01-16T03:59:45;14.60;;;14.10;;
22068;SDS011;13887;57.196;-2.100;2024-01-16T04:02:13;14.37;;;13.87;;
22068;SDS011;13887;57.196;-2.100;2024-01-16T04:04:41;14.63;;;14.13;;
22068;SDS011;13887;57.196;-2.100;2024-01-16T04:07:08;14.57;;;14.07;;
22068;SDS011;13887;57.196;-2.100;2024-01-16T04:09:35;14.47;;;13.97;;
22068;SDS011;13887;57.196;-2.100;2024-01-16T04:12:02;14.67;;;14.17;;
22068;SDS011;13887;57.196;-2.100;2024-01-16T04:14:30;14.60;;;14.10;;
22068;SDS011;13887;57.196;-2.100;2024-01-16T04:16:57;14.70;;;14.20;;
22068;SDS011;13887;57.196;-2.100;2024-01-16T04:19:24;14.67;;;14.17;;
22068;SDS011;13887;57.196;-2.100;2024-01-16T04:21:52;14.77;;;14.27;;
22068;SDS011;13887;57.196;-2.100;2024-01-16T04:24:19;14.80;;;14.30;;
22068;SDS011;13887;57.196;-2.100;2024-01-16T04:26:46;14.73;;;14.23;;
22068;SDS011;13887;57.196;-2.100;2024-01-16T04:29:13;14.80;;;14.30;;
22068;SDS011;13887;57.196;-2.100;2024-01-16T04:31:41;14.90;;;14.40;;
22068;SDS011;13887;57.196;-2.100;2024-01-16T04:34:08;14.90;;;14.40;;
22068;SDS011;13887;57.196;-2.100;2024-01-16T04:36:35;14.90;;;14.40;;
22068;SDS011;13887;57.196;-2.100;2024-01-16T04:39:03;14.90;;;14.40;;
22068;SDS011;13887;57.196;-2.100;2024-01-16T04:41:30;14.53;;;14.03;;
22068;SDS011;13887;57.196;-2.100;2024-01-16T04:43:57;14.80;;;14.30;;
22068;SDS011;13887;57.196;-2.100;2024-01-16T04:46:25;14.37;;;13.87;;
22068;SDS011;13887;57.196;-2.100;2024-01-16T04:48:52;14.67;;;14.17;;
22068;SDS011;13887;57.196;-2.100;2024-01-16T04:51:19;14.90;;;14.40;;
22068;SDS011;13887;57.196;-2.100;2024-01-16T04:53:46;14.90;;;14.40;;
22068;SDS011;13887;57.196;-2.100;2024-01-16T04:56:14;14.70;;;14.20;;
22068;SDS011;13887;57.196;-2.100;2024-01-16T04:58:41;14.97;;;14.40;;
22068;SDS011;13887;57.196;-2.100;2024-01-16T05:01:08;15.40;;;14.80;;
22068;SDS011;13887;57.196;-2.100;2024-01-16T05:03:36;15.50;;;14.90;;
22068;SDS011;13887;57.196;-2.100;2024-01-16T05:06:03;15.30;;;14.70;;
22068;SDS011;13887;57.196;-2.100;2024-01-16T05:08:30;14.97;;;14.40;;
22068;SDS011;13887;57.196;-2.100;2024-01-16T05:10:58;14.73;;;14.23;;
22068;SDS011;13887;57.196;-2.100;2024-01-16T05:13:25;15.37;;;14.77;;
22068;SDS011;13887;57.196;-2.100;2024-01-16T05:15:52;15.10;;;14.50;;
22068;SDS011;13887;57.196;-2.100;2024-01-16T05:18:19;15.20;;;14.60;;
22068;SDS011;13887;57.196;-2.100;2024-01-16T05:20:47;15.40;;;14.80;;
22068;SDS011;13887;57.196;-2.100;2024-01-16T05:23:15;15.23;;;14.63;;
22068;SDS011;13887;57.196;-2.100;2024-01-16T05:25:42;14.90;;;14.37;;
22068;SDS011;13887;57.196;-2.100;2024-01-16T05:28:09;15.10;;;14.50;;
22068;SDS011;13887;57.196;-2.100;2024-01-16T05:30:37;15.57;;;14.97;;
22068;SDS011;13887;57.196;-2.100;2024-01-16T05:33:04;15.20;;;14.60;;
22068;SDS011;13887;57.196;-2.100;2024-01-16T05:35:31;15.33;;;14.73;;
22068;SDS011;13887;57.196;-2.100;2024-01-16T05:37:59;15.27;;;14.67;;
22068;SDS011;13887;57.196;-2.100;2024-01-16T05:40:26;15.10;;;14.50;;
22068;SDS011;13887;57.196;-2.100;2024-01-16T05:42:53;15.30;;;14.70;;
22068;SDS011;13887;57.196;-2.100;2024-01-16T05:45:21;15.47;;;14.87;;
22068;SDS011;13887;57.196;-2.100;2024-01-16T05:47:48;15.30;;;14.70;;
22068;SDS011;13887;57.196;-2.100;2024-01-16T05:50:15;15.40;;;14.80;;
22068;SDS011;13887;57.196;-2.100;2024-01-16T05:52:46;15.33;;;14.73;;
22068;SDS011;13887;57.196;-2.100;2024-01-16T05:55:13;15.60;;;15.00;;
22068;SDS011;13887;57.196;-2.100;2024-01-16T05:57:40;15.60;;;15.00;;
22068;SDS011;13887;57.196;-2.100;2024-01-16T06:00:10;15.53;;;14.93;;
22068;SDS011;13887;57.196;-2.100;2024-01-16T06:02:38;15.63;;;15.03;;
22068;SDS011;13887;57.196;-2.100;2024-01-16T06:05:05;15.17;;;14.57;;
22068;SDS011;13887;57.196;-2.100;2024-01-16T06:07:34;15.77;;;15.17;;
22068;SDS011;13887;57.196;-2.100;2024-01-16T06:10:01;15.27;;;14.67;;
22068;SDS011;13887;57.196;-2.100;2024-01-16T06:12:31;15.80;;;15.20;;
22068;SDS011;13887;57.196;-2.100;2024-01-16T06:14:59;15.47;;;14.87;;
22068;SDS011;13887;57.196;-2.100;2024-01-16T06:17:27;15.47;;;14.87;;
22068;SDS011;13887;57.196;-2.100;2024-01-16T06:19:54;15.63;;;15.03;;
22068;SDS011;13887;57.196;-2.100;2024-01-16T06:22:21;15.60;;;15.00;;
22068;SDS011;13887;57.196;-2.100;2024-01-16T06:24:49;15.27;;;14.67;;
22068;SDS011;13887;57.196;-2.100;2024-01-16T06:27:16;15.37;;;14.77;;
22068;SDS011;13887;57.196;-2.100;2024-01-16T06:29:46;15.10;;;14.50;;
22068;SDS011;13887;57.196;-2.100;2024-01-16T06:32:13;15.57;;;14.97;;
22068;SDS011;13887;57.196;-2.100;2024-01-16T06:34:41;15.17;;;14.57;;
22068;SDS011;13887;57.196;-2.100;2024-01-16T06:37:08;15.00;;;14.50;;
22068;SDS011;13887;57.196;-2.100;2024-01-16T06:39:35;15.20;;;14.60;;
22068;SDS011;13887;57.196;-2.100;2024-01-16T06:42:04;14.90;;;14.40;;
22068;SDS011;13887;57.196;-2.100;2024-01-16T06:44:36;14.70;;;14.20;;
22068;SDS011;13887;57.196;-2.100;2024-01-16T06:47:04;14.57;;;14.07;;
22068;SDS011;13887;57.196;-2.100;2024-01-16T06:49:31;14.53;;;14.03;;
22068;SDS011;13887;57.196;-2.100;2024-01-16T06:51:59;14.83;;;14.33;;
22068;SDS011;13887;57.196;-2.100;2024-01-16T06:54:26;15.23;;;14.63;;
22068;SDS011;13887;57.196;-2.100;2024-01-16T06:56:53;15.03;;;14.53;;
22068;SDS011;13887;57.196;-2.100;2024-01-16T06:59:21;15.40;;;14.80;;
22068;SDS011;13887;57.196;-2.100;2024-01-16T07:01:48;15.37;;;14.77;;
22068;SDS011;13887;57.196;-2.100;2024-01-16T07:04:15;15.10;;;14.60;;
22068;SDS011;13887;57.196;-2.100;2024-01-16T07:06:43;15.80;;;15.20;;
22068;SDS011;13887;57.196;-2.100;2024-01-16T07:09:10;14.90;;;14.40;;
22068;SDS011;13887;57.196;-2.100;2024-01-16T07:11:38;15.00;;;14.50;;
22068;SDS011;13887;57.196;-2.100;2024-01-16T07:14:09;15.40;;;14.80;;
22068;SDS011;13887;57.196;-2.100;2024-01-16T07:16:37;15.40;;;14.80;;
22068;SDS011;13887;57.196;-2.100;2024-01-16T07:19:05;15.53;;;14.93;;
22068;SDS011;13887;57.196;-2.100;2024-01-16T07:21:32;15.43;;;14.83;;
22068;SDS011;13887;57.196;-2.100;2024-01-16T07:24:00;15.37;;;14.77;;
22068;SDS011;13887;57.196;-2.100;2024-01-16T07:26:28;15.17;;;14.67;;
22068;SDS011;13887;57.196;-2.100;2024-01-16T07:28:56;15.00;;;14.50;;
22068;SDS011;13887;57.196;-2.100;2024-01-16T07:31:24;15.00;;;14.50;;
22068;SDS011;13887;57.196;-2.100;2024-01-16T07:33:52;14.90;;;14.40;;
22068;SDS011;13887;57.196;-2.100;2024-01-16T07:36:20;14.70;;;14.20;;
22068;SDS011;13887;57.196;-2.100;2024-01-16T07:38:47;15.17;;;14.63;;
22068;SDS011;13887;57.196;-2.100;2024-01-16T07:41:14;15.23;;;14.63;;
22068;SDS011;13887;57.196;-2.100;2024-01-16T07:43:45;15.30;;;14.70;;
22068;SDS011;13887;57.196;-2.100;2024-01-16T07:46:15;15.10;;;14.60;;
22068;SDS011;13887;57.196;-2.100;2024-01-16T07:48:43;14.93;;;14.43;;
22068;SDS011;13887;57.196;-2.100;2024-01-16T07:51:10;14.40;;;13.90;;
22068;SDS011;13887;57.196;-2.100;2024-01-16T07:53:38;14.67;;;14.17;;
22068;SDS011;13887;57.196;-2.100;2024-01-16T07:56:05;14.37;;;13.87;;
22068;SDS011;13887;57.196;-2.100;2024-01-16T07:58:32;14.23;;;13.73;;
22068;SDS011;13887;57.196;-2.100;2024-01-16T08:00:59;14.53;;;14.03;;
22068;SDS011;13887;57.196;-2.100;2024-01-16T08:03:27;14.37;;;13.87;;
22068;SDS011;13887;57.196;-2.100;2024-01-16T08:05:55;15.00;;;14.50;;
22068;SDS011;13887;57.196;-2.100;2024-01-16T08:08:23;14.13;;;13.63;;
22068;SDS011;13887;57.196;-2.100;2024-01-16T08:10:50;14.67;;;14.17;;
22068;SDS011;13887;57.196;-2.100;2024-01-16T08:13:17;15.17;;;14.67;;
22068;SDS011;13887;57.196;-2.100;2024-01-16T08:15:44;15.27;;;14.67;;
22068;SDS011;13887;57.196;-2.100;2024-01-16T08:18:11;14.90;;;14.40;;
22068;SDS011;13887;57.196;-2.100;2024-01-16T08:20:39;14.80;;;14.30;;
22068;SDS011;13887;57.196;-2.100;2024-01-16T08:23:06;15.67;;;15.07;;
22068;SDS011;13887;57.196;-2.100;2024-01-16T08:25:34;16.63;;;15.97;;
22068;SDS011;13887;57.196;-2.100;2024-01-16T08:28:01;14.73;;;14.23;;
22068;SDS011;13887;57.196;-2.100;2024-01-16T08:30:28;15.10;;;14.57;;
22068;SDS011;13887;57.196;-2.100;2024-01-16T08:32:55;14.93;;;14.43;;
22068;SDS011;13887;57.196;-2.100;2024-01-16T08:35:23;15.00;;;14.50;;
22068;SDS011;13887;57.196;-2.100;2024-01-16T08:37:50;14.90;;;14.40;;
22068;SDS011;13887;57.196;-2.100;2024-01-16T08:40:18;15.27;;;14.67;;
22068;SDS011;13887;57.196;-2.100;2024-01-16T08:42:45;14.80;;;14.30;;
22068;SDS011;13887;57.196;-2.100;2024-01-16T08:45:12;15.17;;;14.57;;
22068;SDS011;13887;57.196;-2.100;2024-01-16T08:47:40;15.50;;;14.90;;
22068;SDS011;13887;57.196;-2.100;2024-01-16T08:50:07;14.33;;;13.83;;
22068;SDS011;13887;57.196;-2.100;2024-01-16T08:52:36;14.93;;;14.43;;
22068;SDS011;13887;57.196;-2.100;2024-01-16T08:55:03;14.43;;;13.93;;
22068;SDS011;13887;57.196;-2.100;2024-01-16T08:57:31;14.67;;;14.17;;
22068;SDS011;13887;57.196;-2.100;2024-01-16T08:59:58;13.97;;;13.47;;
22068;SDS011;13887;57.196;-2.100;2024-01-16T09:02:25;15.10;;;14.50;;
22068;SDS011;13887;57.196;-2.100;2024-01-16T09:04:56;15.43;;;14.83;;
22068;SDS011;13887;57.196;-2.100;2024-01-16T09:07:24;14.60;;;14.10;;
22068;SDS011;13887;57.196;-2.100;2024-01-16T09:09:51;14.67;;;14.17;;
22068;SDS011;13887;57.196;-2.100;2024-01-16T09:12:19;13.80;;;13.30;;
22068;SDS011;13887;57.196;-2.100;2024-01-16T09:14:46;14.27;;;13.77;;
22068;SDS011;13887;57.196;-2.100;2024-01-16T09:17:14;14.50;;;14.00;;
22068;SDS011;13887;57.196;-2.100;2024-01-16T09:19:41;13.87;;;13.37;;
22068;SDS011;13887;57.196;-2.100;2024-01-16T09:22:09;14.10;;;13.60;;
22068;SDS011;13887;57.196;-2.100;2024-01-16T09:24:36;14.20;;;13.70;;
22068;SDS011;13887;57.196;-2.100;2024-01-16T09:27:03;13.80;;;13.30;;
22068;SDS011;13887;57.196;-2.100;2024-01-16T09:29:33;14.00;;;13.50;;
22068;SDS011;13887;57.196;-2.100;2024-01-16T09:32:01;14.40;;;13.90;;
22068;SDS011;13887;57.196;-2.100;2024-01-16T09:34:28;14.50;;;14.00;;
22068;SDS011;13887;57.196;-2.100;2024-01-16T09:36:56;14.40;;;13.90;;
22068;SDS011;13887;57.196;-2.100;2024-01-16T09:39:27;14.23;;;13.73;;
22068;SDS011;13887;57.196;-2.100;2024-01-16T09:41:57;14.10;;;13.60;;
22068;SDS011;13887;57.196;-2.100;2024-01-16T09:44:28;14.20;;;13.70;;
22068;SDS011;13887;57.196;-2.100;2024-01-16T09:46:56;14.50;;;14.00;;
22068;SDS011;13887;57.196;-2.100;2024-01-16T09:49:24;15.00;;;14.50;;
22068;SDS011;13887;57.196;-2.100;2024-01-16T09:51:52;14.20;;;13.70;;
22068;SDS011;13887;57.196;-2.100;2024-01-16T09:54:20;15.20;;;14.60;;
22068;SDS011;13887;57.196;-2.100;2024-01-16T09:56:48;14.47;;;13.97;;
22068;SDS011;13887;57.196;-2.100;2024-01-16T09:59:20;14.70;;;14.20;;
22068;SDS011;13887;57.196;-2.100;2024-01-16T10:01:49;14.40;;;13.90;;
22068;SDS011;13887;57.196;-2.100;2024-01-16T10:04:21;14.90;;;14.40;;
22068;SDS011;13887;57.196;-2.100;2024-01-16T10:06:49;15.20;;;14.60;;
22068;SDS011;13887;57.196;-2.100;2024-01-16T10:09:18;14.70;;;14.20;;
22068;SDS011;13887;57.196;-2.100;2024-01-16T10:11:45;14.73;;;14.23;;
22068;SDS011;13887;57.196;-2.100;2024-01-16T10:14:13;14.60;;;14.10;;
22068;SDS011;13887;57.196;-2.100;2024-01-16T10:16:57;14.57;;;14.07;;
22068;SDS011;13887;57.196;-2.100;2024-01-16T10:19:26;14.53;;;14.03;;
22068;SDS011;13887;57.196;-2.100;2024-01-16T10:22:11;14.47;;;13.97;;
22068;SDS011;13887;57.196;-2.100;2024-01-16T10:24:38;14.30;;;13.80;;
22068;SDS011;13887;57.196;-2.100;2024-01-16T10:27:07;14.87;;;14.37;;
22068;SDS011;13887;57.196;-2.100;2024-01-16T10:29:34;14.63;;;14.13;;
22068;SDS011;13887;57.196;-2.100;2024-01-16T10:32:26;14.43;;;13.93;;
22068;SDS011;13887;57.196;-2.100;2024-01-16T10:35:02;14.90;;;14.40;;
22068;SDS011;13887;57.196;-2.100;2024-01-16T10:37:47;15.23;;;14.63;;
22068;SDS011;13887;57.196;-2.100;2024-01-16T10:42:43;14.87;;;14.37;;
22068;SDS011;13887;57.196;-2.100;2024-01-16T10:45:23;14.60;;;14.10;;
22068;SDS011;13887;57.196;-2.100;2024-01-16T10:48:03;14.57;;;14.07;;
22068;SDS011;13887;57.196;-2.100;2024-01-16T10:50:36;14.47;;;13.97;;
22068;SDS011;13887;57.196;-2.100;2024-01-16T10:53:06;14.23;;;13.73;;
22068;SDS011;13887;57.196;-2.100;2024-01-16T10:55:47;15.50;;;14.90;;
22068;SDS011;13887;57.196;-2.100;2024-01-16T10:58:21;15.20;;;14.60;;
22068;SDS011;13887;57.196;-2.100;2024-01-16T11:00:50;15.30;;;14.70;;
22068;SDS011;13887;57.196;-2.100;2024-01-16T11:03:25;14.70;;;14.20;;
22068;SDS011;13887;57.196;-2.100;2024-01-16T11:05:57;14.67;;;14.17;;
22068;SDS011;13887;57.196;-2.100;2024-01-16T11:08:25;14.50;;;14.00;;
22068;SDS011;13887;57.196;-2.100;2024-01-16T11:10:58;14.53;;;14.03;;
22068;SDS011;13887;57.196;-2.100;2024-01-16T11:13:27;14.23;;;13.73;;
22068;SDS011;13887;57.196;-2.100;2024-01-16T11:15:55;13.50;;;13.00;;
22068;SDS011;13887;57.196;-2.100;2024-01-16T11:18:22;14.50;;;14.00;;
22068;SDS011;13887;57.196;-2.100;2024-01-16T11:20:52;14.60;;;14.10;;
22068;SDS011;13887;57.196;-2.100;2024-01-16T11:23:33;14.57;;;14.07;;
22068;SDS011;13887;57.196;-2.100;2024-01-16T11:31:56;14.80;;;14.30;;
22068;SDS011;13887;57.196;-2.100;2024-01-16T11:37:11;15.37;;;14.77;;
22068;SDS011;13887;57.196;-2.100;2024-01-16T11:39:39;15.30;;;14.70;;
22068;SDS011;13887;57.196;-2.100;2024-01-16T11:42:09;14.87;;;14.37;;
22068;SDS011;13887;57.196;-2.100;2024-01-16T11:44:40;15.00;;;14.50;;
22068;SDS011;13887;57.196;-2.100;2024-01-16T11:47:15;15.20;;;14.60;;
22068;SDS011;13887;57.196;-2.100;2024-01-16T11:49:44;15.00;;;14.50;;
22068;SDS011;13887;57.196;-2.100;2024-01-16T11:52:13;15.03;;;14.50;;
22068;SDS011;13887;57.196;-2.100;2024-01-16T11:54:41;15.43;;;14.83;;
22068;SDS011;13887;57.196;-2.100;2024-01-16T12:05:10;14.57;;;14.07;;
22068;SDS011;13887;57.196;-2.100;2024-01-16T12:07:51;14.50;;;14.00;;
22068;SDS011;13887;57.196;-2.100;2024-01-16T12:10:20;15.30;;;14.70;;
22068;SDS011;13887;57.196;-2.100;2024-01-16T12:12:51;15.10;;;14.50;;
22068;SDS011;13887;57.196;-2.100;2024-01-16T12:15:29;14.80;;;14.30;;
22068;SDS011;13887;57.196;-2.100;2024-01-16T12:17:57;14.60;;;14.10;;
22068;SDS011;13887;57.196;-2.100;2024-01-16T12:20:28;14.73;;;14.23;;
22068;SDS011;13887;57.196;-2.100;2024-01-16T12:22:58;15.10;;;14.50;;
22068;SDS011;13887;57.196;-2.100;2024-01-16T12:25:30;14.30;;;13.80;;
22068;SDS011;13887;57.196;-2.100;2024-01-16T12:28:20;14.23;;;13.73;;
22068;SDS011;13887;57.196;-2.100;2024-01-16T12:30:51;14.60;;;14.10;;
22068;SDS011;13887;57.196;-2.100;2024-01-16T12:33:21;14.33;;;13.83;;
22068;SDS011;13887;57.196;-2.100;2024-01-16T12:35:49;15.00;;;14.50;;
22068;SDS011;13887;57.196;-2.100;2024-01-16T12:38:17;14.93;;;14.43;;
22068;SDS011;13887;57.196;-2.100;2024-01-16T12:40:50;14.73;;;14.23;;
22068;SDS011;13887;57.196;-2.100;2024-01-16T12:43:18;14.83;;;14.33;;
22068;SDS011;13887;57.196;-2.100;2024-01-16T12:45:46;14.77;;;14.27;;
22068;SDS011;13887;57.196;-2.100;2024-01-16T12:48:22;14.60;;;14.10;;
22068;SDS011;13887;57.196;-2.100;2024-01-16T12:50:51;14.57;;;14.07;;
22068;SDS011;13887;57.196;-2.100;2024-01-16T12:53:25;14.67;;;14.17;;
22068;SDS011;13887;57.196;-2.100;2024-01-16T12:55:58;14.67;;;14.17;;
22068;SDS011;13887;57.196;-2.100;2024-01-16T12:58:31;14.50;;;14.00;;
22068;SDS011;13887;57.196;-2.100;2024-01-16T13:04:06;14.37;;;13.87;;
22068;SDS011;13887;57.196;-2.100;2024-01-16T13:06:34;14.30;;;13.80;;
22068;SDS011;13887;57.196;-2.100;2024-01-16T13:12:18;14.63;;;14.13;;
22068;SDS011;13887;57.196;-2.100;2024-01-16T13:14:32;14.70;;;14.20;;
22068;SDS011;13887;57.196;-2.100;2024-01-16T13:17:00;14.50;;;14.00;;
22068;SDS011;13887;57.196;-2.100;2024-01-16T13:19:29;14.83;;;14.33;;
22068;SDS011;13887;57.196;-2.100;2024-01-16T13:22:00;15.20;;;14.60;;
22068;SDS011;13887;57.196;-2.100;2024-01-16T13:24:27;15.07;;;14.53;;
22068;SDS011;13887;57.196;-2.100;2024-01-16T13:26:54;15.10;;;14.50;;
22068;SDS011;13887;57.196;-2.100;2024-01-16T13:29:22;14.47;;;13.97;;
22068;SDS011;13887;57.196;-2.100;2024-01-16T13:31:49;14.87;;;14.37;;
22068;SDS011;13887;57.196;-2.100;2024-01-16T13:34:22;14.90;;;14.40;;
22068;SDS011;13887;57.196;-2.100;2024-01-16T13:36:52;14.87;;;14.37;;
22068;SDS011;13887;57.196;-2.100;2024-01-16T13:39:41;15.30;;;14.70;;
22068;SDS011;13887;57.196;-2.100;2024-01-16T13:42:08;14.87;;;14.37;;
22068;SDS011;13887;57.196;-2.100;2024-01-16T13:44:36;14.73;;;14.23;;
22068;SDS011;13887;57.196;-2.100;2024-01-16T13:47:03;15.17;;;14.57;;
22068;SDS011;13887;57.196;-2.100;2024-01-16T13:49:37;14.67;;;14.17;;
22068;SDS011;13887;57.196;-2.100;2024-01-16T13:52:05;14.77;;;14.27;;
22068;SDS011;13887;57.196;-2.100;2024-01-16T13:54:35;14.90;;;14.40;;
22068;SDS011;13887;57.196;-2.100;2024-01-16T13:57:03;14.40;;;13.90;;
22068;SDS011;13887;57.196;-2.100;2024-01-16T13:59:35;14.40;;;13.90;;
22068;SDS011;13887;57.196;-2.100;2024-01-16T14:02:03;14.57;;;14.07;;
22068;SDS011;13887;57.196;-2.100;2024-01-16T14:04:35;15.40;;;14.80;;
22068;SDS011;13887;57.196;-2.100;2024-01-16T14:07:02;14.60;;;14.10;;
22068;SDS011;13887;57.196;-2.100;2024-01-16T14:09:40;14.70;;;14.20;;
22068;SDS011;13887;57.196;-2.100;2024-01-16T14:12:10;14.67;;;14.17;;
22068;SDS011;13887;57.196;-2.100;2024-01-16T14:14:38;14.80;;;14.30;;
22068;SDS011;13887;57.196;-2.100;2024-01-16T14:17:07;14.60;;;14.10;;
22068;SDS011;13887;57.196;-2.100;2024-01-16T14:19:34;14.97;;;14.43;;
22068;SDS011;13887;57.196;-2.100;2024-01-16T14:22:02;15.27;;;14.67;;
22068;SDS011;13887;57.196;-2.100;2024-01-16T14:24:30;14.83;;;14.33;;
22068;SDS011;13887;57.196;-2.100;2024-01-16T14:26:57;14.47;;;13.97;;
22068;SDS011;13887;57.196;-2.100;2024-01-16T14:29:24;15.47;;;14.87;;
22068;SDS011;13887;57.196;-2.100;2024-01-16T14:31:53;15.30;;;14.70;;
22068;SDS011;13887;57.196;-2.100;2024-01-16T14:34:24;14.93;;;14.43;;
22068;SDS011;13887;57.196;-2.100;2024-01-16T14:36:53;15.03;;;14.53;;
22068;SDS011;13887;57.196;-2.100;2024-01-16T14:39:21;14.67;;;14.17;;
22068;SDS011;13887;57.196;-2.100;2024-01-16T14:41:58;14.83;;;14.33;;